createdAt,value
2022-08-04T00:03:00.256Z,17.20
2022-08-04T00:07:11.248Z,17.20
2022-08-04T00:11:17.583Z,17.20
2022-08-04T00:15:22.930Z,17.10
2022-08-04T00:19:31.099Z,17.00
2022-08-04T00:24:11.948Z,17.00
2022-08-04T00:28:02.881Z,17.00
2022-08-04T00:32:08.721Z,16.90
2022-08-04T00:36:13.044Z,16.80
2022-08-04T00:40:26.014Z,16.80
2022-08-04T00:44:46.289Z,16.70
2022-08-04T00:49:05.932Z,16.70
2022-08-04T00:53:14.612Z,16.70
2022-08-04T00:57:34.656Z,16.60
2022-08-04T01:01:56.006Z,16.60
2022-08-04T01:06:12.762Z,16.50
2022-08-04T01:10:25.543Z,16.50
2022-08-04T01:14:51.354Z,16.40
2022-08-04T01:19:00.869Z,16.40
2022-08-04T01:23:44.881Z,16.40
2022-08-04T01:28:16.376Z,16.40
2022-08-04T01:32:33.297Z,16.30
2022-08-04T01:36:36.893Z,16.30
2022-08-04T01:40:42.666Z,16.30
2022-08-04T01:44:49.581Z,16.20
2022-08-04T01:48:55.626Z,16.10
2022-08-04T01:52:59.425Z,16.10
2022-08-04T01:57:36.813Z,16.10
2022-08-04T02:01:30.738Z,16.10
2022-08-04T02:06:03.400Z,16.00
2022-08-04T02:10:07.172Z,16.00
2022-08-04T02:14:36.841Z,15.90
2022-08-04T02:18:51.913Z,15.90
2022-08-04T02:23:02.236Z,15.80
2022-08-04T02:27:07.347Z,15.80
2022-08-04T02:31:18.289Z,15.80
2022-08-04T02:35:27.448Z,15.70
2022-08-04T02:39:48.559Z,15.70
2022-08-04T02:43:56.487Z,15.60
2022-08-04T02:48:29.160Z,15.60
2022-08-04T02:52:27.206Z,15.60
2022-08-04T02:56:33.851Z,15.50
2022-08-04T03:00:38.506Z,15.50
2022-08-04T03:04:58.720Z,15.50
2022-08-04T03:09:23.361Z,15.50
2022-08-04T03:13:53.640Z,15.40
2022-08-04T03:18:24.506Z,15.40
2022-08-04T03:23:12.503Z,15.40
2022-08-04T03:27:47.678Z,15.40
2022-08-04T03:32:27.536Z,15.30
2022-08-04T03:37:04.735Z,15.30
2022-08-04T03:41:54.943Z,15.20
2022-08-04T03:46:40.532Z,15.20
2022-08-04T03:51:35.914Z,15.20
2022-08-04T03:56:08.922Z,15.10
2022-08-04T04:00:15.346Z,15.10
2022-08-04T04:04:49.114Z,15.10
2022-08-04T04:09:16.281Z,15.10
2022-08-04T04:13:40.521Z,15.20
2022-08-04T04:18:03.107Z,15.20
2022-08-04T04:22:22.881Z,15.30
2022-08-04T04:26:39.906Z,15.30
2022-08-04T04:30:54.218Z,15.40
2022-08-04T04:35:20.111Z,15.40
2022-08-04T04:39:33.417Z,15.50
2022-08-04T04:43:56.700Z,15.50
2022-08-04T04:48:10.866Z,15.60
2022-08-04T04:52:25.334Z,15.70
2022-08-04T04:56:36.111Z,15.80
2022-08-04T05:00:49.219Z,15.80
2022-08-04T05:05:13.449Z,15.90
2022-08-04T05:09:33.424Z,16.00
2022-08-04T05:14:38.055Z,16.10
2022-08-04T05:18:07.943Z,16.30
2022-08-04T05:22:21.062Z,16.40
2022-08-04T05:26:32.184Z,16.50
2022-08-04T05:30:47.409Z,16.60
2022-08-04T05:34:56.907Z,16.80
2022-08-04T05:39:03.674Z,16.90
2022-08-04T05:43:08.686Z,17.00
2022-08-04T05:47:13.951Z,17.20
2022-08-04T05:51:18.073Z,17.30
2022-08-04T05:55:48.887Z,17.40
2022-08-04T05:59:47.611Z,17.70
2022-08-04T06:03:51.697Z,17.90
2022-08-04T06:08:12.509Z,18.20
2022-08-04T06:12:22.325Z,18.50
2022-08-04T06:16:28.852Z,18.70
2022-08-04T06:20:37.360Z,18.90
2022-08-04T06:24:42.632Z,19.10
2022-08-04T06:28:48.533Z,19.30
2022-08-04T06:33:03.925Z,19.50
2022-08-04T06:37:09.688Z,19.90
2022-08-04T06:41:13.207Z,20.00
2022-08-04T06:45:19.330Z,20.30
2022-08-04T06:49:23.839Z,20.60
2022-08-04T06:53:28.056Z,20.80
2022-08-04T06:57:34.788Z,21.00
2022-08-04T07:01:40.778Z,21.10
2022-08-04T07:05:44.405Z,21.30
2022-08-04T07:09:48.152Z,21.60
2022-08-04T07:13:52.305Z,22.00
2022-08-04T07:18:00.429Z,22.40
2022-08-04T07:22:18.096Z,22.80
2022-08-04T07:26:30.755Z,22.80
2022-08-04T07:30:36.141Z,23.00
2022-08-04T07:34:42.007Z,23.30
2022-08-04T07:38:48.309Z,23.60
2022-08-04T07:42:55.079Z,23.90
2022-08-04T07:46:58.731Z,24.20
2022-08-04T07:51:03.838Z,24.40
2022-08-04T07:55:12.798Z,24.70
2022-08-04T07:59:16.668Z,25.10
2022-08-04T08:03:21.901Z,25.00
2022-08-04T08:07:26.815Z,25.40
2022-08-04T08:12:35.577Z,25.60
2022-08-04T08:15:55.568Z,25.80
2022-08-04T08:19:59.064Z,26.00
2022-08-04T08:24:07.479Z,26.10
2022-08-04T08:28:17.503Z,26.40
2022-08-04T08:32:21.535Z,27.10
2022-08-04T08:36:30.187Z,27.80
2022-08-04T08:40:45.798Z,28.10
2022-08-04T08:45:17.920Z,29.00
2022-08-04T08:50:02.273Z,30.40
2022-08-04T08:54:45.366Z,32.20
2022-08-04T08:59:12.163Z,34.10
2022-08-04T09:03:43.191Z,34.20
2022-08-04T09:08:11.351Z,35.60
2022-08-04T09:12:25.654Z,37.10
2022-08-04T09:16:38.367Z,37.20
2022-08-04T09:20:52.518Z,37.50
2022-08-04T09:25:04.831Z,37.10
2022-08-04T09:29:15.705Z,37.40
2022-08-04T09:33:44.796Z,37.00
2022-08-04T09:38:00.122Z,37.00
2022-08-04T09:42:14.611Z,37.30
2022-08-04T09:46:27.386Z,38.30
2022-08-04T09:50:38.981Z,36.90
2022-08-04T09:54:50.521Z,38.20
2022-08-04T09:59:02.862Z,37.80
2022-08-04T10:03:06.384Z,37.70
2022-08-04T10:08:00.059Z,38.70
2022-08-04T10:12:19.812Z,37.70
2022-08-04T10:16:40.941Z,37.70
2022-08-04T10:20:57.442Z,38.70
2022-08-04T10:25:38.170Z,39.40
2022-08-04T10:29:44.822Z,39.60
2022-08-04T10:33:54.001Z,39.30
2022-08-04T10:38:07.239Z,39.10
2022-08-04T10:42:22.782Z,40.00
2022-08-04T10:46:31.292Z,39.50
2022-08-04T10:50:38.782Z,40.00
2022-08-04T10:54:53.065Z,40.00
2022-08-04T10:59:01.605Z,40.80
2022-08-04T11:03:12.469Z,40.50
2022-08-04T11:07:18.339Z,39.70
2022-08-04T11:11:27.147Z,40.10
2022-08-04T11:15:39.219Z,40.90
2022-08-04T11:19:53.510Z,41.40
2022-08-04T11:24:05.719Z,40.90
2022-08-04T11:28:17.466Z,40.60
2022-08-04T11:32:31.107Z,41.00
2022-08-04T11:36:42.250Z,41.70
2022-08-04T11:40:55.874Z,41.00
2022-08-04T11:45:08.709Z,42.40
2022-08-04T11:49:23.054Z,42.60
2022-08-04T11:53:34.731Z,41.60
2022-08-04T11:57:41.078Z,41.70
2022-08-04T12:02:00.707Z,41.20
2022-08-04T12:06:19.169Z,41.40
2022-08-04T12:10:42.011Z,41.90
2022-08-04T12:14:58.249Z,41.50
2022-08-04T12:19:04.774Z,42.20
2022-08-04T12:23:16.347Z,42.10
2022-08-04T12:27:30.405Z,42.90
2022-08-04T12:31:47.598Z,43.00
2022-08-04T12:36:10.906Z,42.80
2022-08-04T12:40:29.329Z,42.00
2022-08-04T12:44:38.713Z,42.90
2022-08-04T12:48:48.349Z,43.40
2022-08-04T12:53:04.097Z,44.20
2022-08-04T12:57:10.041Z,44.20
2022-08-04T13:02:10.040Z,45.00
2022-08-04T13:05:43.332Z,44.90
2022-08-04T13:09:48.349Z,44.70
2022-08-04T13:14:17.256Z,45.50
2022-08-04T13:18:20.534Z,45.40
2022-08-04T13:22:28.970Z,45.40
2022-08-04T13:26:43.968Z,44.20
2022-08-04T13:31:00.891Z,45.00
2022-08-04T13:35:09.002Z,45.60
2022-08-04T13:39:17.910Z,44.20
2022-08-04T13:44:16.978Z,45.80
2022-08-04T13:47:58.696Z,45.50
2022-08-04T13:52:18.639Z,45.60
2022-08-04T13:56:24.229Z,46.00
2022-08-04T14:00:41.672Z,44.90
2022-08-04T14:04:57.279Z,45.10
2022-08-04T14:09:02.429Z,45.10
2022-08-04T14:13:07.038Z,45.20
2022-08-04T14:17:19.939Z,41.90
2022-08-04T14:21:25.790Z,43.50
2022-08-04T14:25:35.593Z,45.70
2022-08-04T14:29:41.912Z,45.60
2022-08-04T14:34:03.544Z,45.20
2022-08-04T14:38:11.383Z,44.60
2022-08-04T14:42:15.321Z,45.70
2022-08-04T14:46:19.313Z,45.60
2022-08-04T14:50:36.899Z,44.90
2022-08-04T14:54:41.817Z,44.20
2022-08-04T14:58:45.067Z,43.60
2022-08-04T15:02:48.860Z,44.20
2022-08-04T15:06:52.882Z,42.70
2022-08-04T15:10:59.724Z,44.70
2022-08-04T15:15:26.732Z,45.40
2022-08-04T15:19:27.497Z,45.80
2022-08-04T15:23:38.854Z,45.80
2022-08-04T15:27:47.220Z,46.00
2022-08-04T15:32:07.865Z,46.20
2022-08-04T15:36:16.662Z,46.40
2022-08-04T15:40:27.125Z,45.00
2022-08-04T15:45:13.622Z,44.20
2022-08-04T15:49:20.814Z,43.10
2022-08-04T15:53:24.510Z,41.90
2022-08-04T15:58:01.112Z,39.90
2022-08-04T16:02:38.852Z,38.20
2022-08-04T16:06:48.407Z,37.10
2022-08-04T16:10:54.086Z,36.30
2022-08-04T16:15:38.245Z,35.30
2022-08-04T16:20:02.897Z,34.90
2022-08-04T16:24:19.360Z,34.10
2022-08-04T16:28:40.569Z,33.50
2022-08-04T16:32:49.534Z,32.80
2022-08-04T16:37:03.141Z,32.50
2022-08-04T16:41:06.774Z,31.80
2022-08-04T16:45:14.558Z,31.30
2022-08-04T16:49:19.196Z,30.90
2022-08-04T16:53:57.916Z,30.70
2022-08-04T16:57:48.828Z,30.50
2022-08-04T17:01:54.991Z,30.20
2022-08-04T17:06:10.141Z,29.80
2022-08-04T17:10:14.911Z,29.50
2022-08-04T17:14:24.035Z,29.30
2022-08-04T17:18:28.664Z,29.10
2022-08-04T17:22:33.137Z,28.80
2022-08-04T17:26:41.376Z,28.70
2022-08-04T17:30:47.897Z,28.50
2022-08-04T17:34:58.608Z,28.30
2022-08-04T17:39:16.499Z,28.10
2022-08-04T17:44:01.508Z,27.90
2022-08-04T17:47:51.741Z,27.60
2022-08-04T17:52:04.432Z,27.40
2022-08-04T17:56:32.915Z,27.20
2022-08-04T18:00:41.061Z,26.90
2022-08-04T18:05:06.974Z,26.70
2022-08-04T18:09:22.866Z,26.50
2022-08-04T18:18:23.001Z,26.10
2022-08-04T18:22:27.998Z,25.80
2022-08-04T18:26:32.106Z,25.60
2022-08-04T18:30:53.719Z,25.30
2022-08-04T18:35:05.657Z,25.20
2022-08-04T18:43:40.809Z,24.70
2022-08-04T18:47:58.479Z,24.50
2022-08-04T18:52:04.560Z,24.30
2022-08-04T18:56:20.041Z,24.10
2022-08-04T19:00:32.131Z,23.90
2022-08-04T19:04:37.099Z,23.80
2022-08-04T19:08:45.078Z,23.70
2022-08-04T19:12:49.046Z,23.50
2022-08-04T19:16:52.881Z,23.40
2022-08-04T19:20:57.340Z,23.30
2022-08-04T19:25:02.334Z,23.20
2022-08-04T19:29:06.569Z,23.00
2022-08-04T19:33:12.144Z,22.90
2022-08-04T19:37:57.156Z,22.80
2022-08-04T19:42:04.582Z,22.70
2022-08-04T19:46:05.673Z,22.60
2022-08-04T19:50:11.599Z,22.50
2022-08-04T19:54:27.264Z,22.30
2022-08-04T19:58:33.148Z,22.30
2022-08-04T20:02:36.819Z,22.20
2022-08-04T20:06:41.623Z,22.10
2022-08-04T20:15:11.027Z,21.80
2022-08-04T20:19:18.625Z,21.80
2022-08-04T20:23:47.914Z,21.70
2022-08-04T20:27:59.290Z,21.60
2022-08-04T20:32:08.882Z,21.50
2022-08-04T20:36:12.947Z,21.50
2022-08-04T20:40:17.431Z,21.40
2022-08-04T20:44:22.309Z,21.30
2022-08-04T20:48:33.758Z,21.20
2022-08-04T20:52:37.799Z,21.20
2022-08-04T20:56:41.463Z,21.10
2022-08-04T21:00:55.058Z,21.00
2022-08-04T21:04:59.667Z,21.00
2022-08-04T21:09:09.753Z,20.90
2022-08-04T21:13:18.924Z,20.80
2022-08-04T21:17:58.712Z,20.80
2022-08-04T21:21:47.094Z,20.70
2022-08-04T21:25:58.059Z,20.70
2022-08-04T21:30:01.551Z,20.60
2022-08-04T21:34:08.673Z,20.50
2022-08-04T21:38:16.614Z,20.40
2022-08-04T21:42:28.877Z,20.30
2022-08-04T21:46:33.714Z,20.30
2022-08-04T21:50:50.569Z,20.20
2022-08-04T21:54:55.452Z,20.20
2022-08-04T21:58:59.100Z,20.10
2022-08-04T22:03:03.416Z,20.00
2022-08-04T22:07:06.882Z,20.00
2022-08-04T22:11:26.981Z,19.90
2022-08-04T22:16:03.566Z,19.80
2022-08-04T22:20:27.665Z,19.80
2022-08-04T22:24:31.843Z,19.80
2022-08-04T22:28:37.292Z,19.70
2022-08-04T22:32:41.261Z,19.70
2022-08-04T22:36:45.922Z,19.60
2022-08-04T22:40:50.219Z,19.50
2022-08-04T22:44:55.658Z,19.40
2022-08-04T22:48:58.909Z,19.40
2022-08-04T22:53:02.221Z,19.40
2022-08-04T22:57:05.983Z,19.30
2022-08-04T23:01:15.090Z,19.30
2022-08-04T23:05:18.853Z,19.20
2022-08-04T23:09:22.267Z,19.20
2022-08-04T23:13:45.456Z,19.10
2022-08-04T23:17:51.961Z,19.00
2022-08-04T23:22:01.948Z,19.00
2022-08-04T23:26:12.541Z,19.00
2022-08-04T23:30:16.362Z,19.00
2022-08-04T23:34:22.177Z,18.90
2022-08-04T23:38:31.845Z,18.90
2022-08-04T23:42:35.462Z,18.90
2022-08-04T23:46:38.687Z,18.80
2022-08-04T23:50:43.304Z,18.80
2022-08-04T23:54:47.323Z,18.80
2022-08-04T23:58:53.599Z,18.70
